sensor_id;sensor_type;location;lat;lon;timestamp;pressure;altitude;pressure_sealevel;temperature
75431;BMP280;64127;51.488;5.462;2024-02-26T00:00:14;99595.44;;;10.58
75431;BMP280;64127;51.488;5.462;2024-02-26T00:02:47;99593.72;;;10.57
75431;BMP280;64127;51.488;5.462;2024-02-26T00:05:19;99588.38;;;10.53
75431;BMP280;64127;51.488;5.462;2024-02-26T00:07:51;99589.13;;;10.47
75431;BMP280;64127;51.488;5.462;2024-02-26T00:10:24;99597.97;;;10.52
75431;BMP280;64127;51.488;5.462;2024-02-26T00:12:56;99598.00;;;10.55
75431;BMP280;64127;51.488;5.462;2024-02-26T00:15:28;99597.13;;;10.53
75431;BMP280;64127;51.488;5.462;2024-02-26T00:18:00;99587.47;;;10.52
75431;BMP280;64127;51.488;5.462;2024-02-26T00:20:32;99599.72;;;10.53
75431;BMP280;64127;51.488;5.462;2024-02-26T00:23:04;99598.84;;;10.53
75431;BMP280;64127;51.488;5.462;2024-02-26T00:25:36;99592.72;;;10.52
75431;BMP280;64127;51.488;5.462;2024-02-26T00:28:10;99592.72;;;10.52
75431;BMP280;64127;51.488;5.462;2024-02-26T00:30:42;99592.84;;;10.58
75431;BMP280;64127;51.488;5.462;2024-02-26T00:33:17;99590.94;;;10.51
75431;BMP280;64127;51.488;5.462;2024-02-26T00:35:49;99586.53;;;10.49
75431;BMP280;64127;51.488;5.462;2024-02-26T00:38:21;99597.06;;;10.50
75431;BMP280;64127;51.488;5.462;2024-02-26T00:40:53;99582.25;;;10.52
75431;BMP280;64127;51.488;5.462;2024-02-26T00:43:25;99582.25;;;10.52
75431;BMP280;64127;51.488;5.462;2024-02-26T00:45:57;99579.56;;;10.49
75431;BMP280;64127;51.488;5.462;2024-02-26T00:48:29;99575.16;;;10.48
75431;BMP280;64127;51.488;5.462;2024-02-26T00:51:01;99564.59;;;10.42
75431;BMP280;64127;51.488;5.462;2024-02-26T00:53:37;99566.25;;;10.37
75431;BMP280;64127;51.488;5.462;2024-02-26T00:56:09;99568.88;;;10.37
75431;BMP280;64127;51.488;5.462;2024-02-26T00:58:41;99566.19;;;10.36
75431;BMP280;64127;51.488;5.462;2024-02-26T01:01:13;99570.44;;;10.29
75431;BMP280;64127;51.488;5.462;2024-02-26T01:03:45;99575.63;;;10.28
75431;BMP280;64127;51.488;5.462;2024-02-26T01:06:17;99570.31;;;10.25
75431;BMP280;64127;51.488;5.462;2024-02-26T01:08:50;99585.97;;;10.22
75431;BMP280;64127;51.488;5.462;2024-02-26T01:11:22;99585.06;;;10.21
75431;BMP280;64127;51.488;5.462;2024-02-26T01:13:54;99580.72;;;10.22
75431;BMP280;64127;51.488;5.462;2024-02-26T01:16:28;99588.69;;;10.26
75431;BMP280;64127;51.488;5.462;2024-02-26T01:19:01;99593.03;;;10.26
75431;BMP280;64127;51.488;5.462;2024-02-26T01:21:33;99592.16;;;10.25
75431;BMP280;64127;51.488;5.462;2024-02-26T01:24:05;99589.47;;;10.22
75431;BMP280;64127;51.488;5.462;2024-02-26T01:26:38;99589.41;;;10.19
75431;BMP280;64127;51.488;5.462;2024-02-26T01:29:11;99601.59;;;10.17
75431;BMP280;64127;51.488;5.462;2024-02-26T01:31:42;99597.09;;;10.13
75431;BMP280;64127;51.488;5.462;2024-02-26T01:34:14;99570.63;;;9.99
75431;BMP280;64127;51.488;5.462;2024-02-26T01:36:47;99603.28;;;10.15
75431;BMP280;64127;51.488;5.462;2024-02-26T01:39:19;99600.50;;;10.10
75431;BMP280;64127;51.488;5.462;2024-02-26T01:41:51;99598.72;;;10.08
75431;BMP280;64127;51.488;5.462;2024-02-26T01:44:23;99606.63;;;10.09
75431;BMP280;64127;51.488;5.462;2024-02-26T01:46:55;99611.88;;;10.11
75431;BMP280;64127;51.488;5.462;2024-02-26T01:49:28;99613.59;;;10.09
75431;BMP280;64127;51.488;5.462;2024-02-26T01:52:02;99616.19;;;10.09
75431;BMP280;64127;51.488;5.462;2024-02-26T01:54:37;99619.63;;;10.06
75431;BMP280;64127;51.488;5.462;2024-02-26T01:57:10;99622.16;;;10.02
75431;BMP280;64127;51.488;5.462;2024-02-26T01:59:43;99614.25;;;10.00
75431;BMP280;64127;51.488;5.462;2024-02-26T02:02:15;99617.75;;;10.01
75431;BMP280;64127;51.488;5.462;2024-02-26T02:04:48;99621.25;;;10.01
75431;BMP280;64127;51.488;5.462;2024-02-26T02:07:22;99617.72;;;9.99
75431;BMP280;64127;51.488;5.462;2024-02-26T02:09:55;99624.66;;;9.97
75431;BMP280;64127;51.488;5.462;2024-02-26T02:12:27;99630.66;;;9.93
75431;BMP280;64127;51.488;5.462;2024-02-26T02:15:00;99626.31;;;9.94
75431;BMP280;64127;51.488;5.462;2024-02-26T02:17:32;99621.06;;;9.92
75431;BMP280;64127;51.488;5.462;2024-02-26T02:20:17;99617.50;;;9.89
75431;BMP280;64127;51.488;5.462;2024-02-26T02:22:50;99622.72;;;9.89
75431;BMP280;64127;51.488;5.462;2024-02-26T02:25:22;99618.38;;;9.89
75431;BMP280;64127;51.488;5.462;2024-02-26T02:27:55;99621.00;;;9.91
75431;BMP280;64127;51.488;5.462;2024-02-26T02:30:30;99619.16;;;9.87
75431;BMP280;64127;51.488;5.462;2024-02-26T02:33:03;99626.03;;;9.82
75431;BMP280;64127;51.488;5.462;2024-02-26T02:35:35;99620.81;;;9.82
75431;BMP280;64127;51.488;5.462;2024-02-26T02:38:07;99626.03;;;9.82
75431;BMP280;64127;51.488;5.462;2024-02-26T02:40:39;99633.06;;;9.83
75431;BMP280;64127;51.488;5.462;2024-02-26T02:43:11;99631.28;;;9.82
75431;BMP280;64127;51.488;5.462;2024-02-26T02:45:43;99628.66;;;9.82
75431;BMP280;64127;51.488;5.462;2024-02-26T02:48:15;99635.56;;;9.80
75431;BMP280;64127;51.488;5.462;2024-02-26T02:50:48;99633.69;;;9.74
75431;BMP280;64127;51.488;5.462;2024-02-26T02:53:20;99627.38;;;9.66
75431;BMP280;64127;51.488;5.462;2024-02-26T02:55:52;99629.22;;;9.68
75431;BMP280;64127;51.488;5.462;2024-02-26T02:58:24;99629.28;;;9.72
75431;BMP280;64127;51.488;5.462;2024-02-26T03:00:56;99629.16;;;9.65
75431;BMP280;64127;51.488;5.462;2024-02-26T03:03:28;99625.53;;;9.60
75431;BMP280;64127;51.488;5.462;2024-02-26T03:06:01;99623.59;;;9.53
75431;BMP280;64127;51.488;5.462;2024-02-26T03:08:33;99624.63;;;9.58
75431;BMP280;64127;51.488;5.462;2024-02-26T03:11:13;99630.59;;;9.54
75431;BMP280;64127;51.488;5.462;2024-02-26T03:13:46;99628.75;;;9.50
75431;BMP280;64127;51.488;5.462;2024-02-26T03:16:18;99619.84;;;9.42
75431;BMP280;64127;51.488;5.462;2024-02-26T03:18:50;99637.50;;;9.51
75431;BMP280;64127;51.488;5.462;2024-02-26T03:21:24;99633.84;;;9.44
75431;BMP280;64127;51.488;5.462;2024-02-26T03:23:56;99638.09;;;9.41
75431;BMP280;64127;51.488;5.462;2024-02-26T03:26:29;99635.50;;;9.41
75431;BMP280;64127;51.488;5.462;2024-02-26T03:29:03;99632.00;;;9.40
75431;BMP280;64127;51.488;5.462;2024-02-26T03:31:35;99635.38;;;9.36
75431;BMP280;64127;51.488;5.462;2024-02-26T03:34:07;99634.41;;;9.33
75431;BMP280;64127;51.488;5.462;2024-02-26T03:36:39;99625.59;;;9.29
75431;BMP280;64127;51.488;5.462;2024-02-26T03:39:11;99626.28;;;9.22
75431;BMP280;64127;51.488;5.462;2024-02-26T03:41:43;99627.31;;;9.29
75431;BMP280;64127;51.488;5.462;2024-02-26T03:44:15;99634.28;;;9.28
75431;BMP280;64127;51.488;5.462;2024-02-26T03:46:47;99629.78;;;9.23
75431;BMP280;64127;51.488;5.462;2024-02-26T03:49:19;99632.31;;;9.20
75431;BMP280;64127;51.488;5.462;2024-02-26T03:51:51;99620.25;;;9.25
75431;BMP280;64127;51.488;5.462;2024-02-26T03:54:23;99626.28;;;9.22
75431;BMP280;64127;51.488;5.462;2024-02-26T03:56:55;99626.34;;;9.25
75431;BMP280;64127;51.488;5.462;2024-02-26T03:59:27;99635.16;;;9.27
75431;BMP280;64127;51.488;5.462;2024-02-26T04:01:59;99640.44;;;9.30
75431;BMP280;64127;51.488;5.462;2024-02-26T04:04:36;99637.00;;;9.31
75431;BMP280;64127;51.488;5.462;2024-02-26T04:07:08;99637.84;;;9.32
75431;BMP280;64127;51.488;5.462;2024-02-26T04:09:40;99623.00;;;9.29
75431;BMP280;64127;51.488;5.462;2024-02-26T04:12:12;99628.91;;;9.22
75431;BMP280;64127;51.488;5.462;2024-02-26T04:14:45;99640.28;;;9.24
75431;BMP280;64127;51.488;5.462;2024-02-26T04:17:17;99637.56;;;9.20
75431;BMP280;64127;51.488;5.462;2024-02-26T04:19:49;99647.88;;;9.15
75431;BMP280;64127;51.488;5.462;2024-02-26T04:22:21;99634.56;;;9.06
75431;BMP280;64127;51.488;5.462;2024-02-26T04:24:53;99649.50;;;9.11
75431;BMP280;64127;51.488;5.462;2024-02-26T04:27:25;99648.56;;;9.08
75431;BMP280;64127;51.488;5.462;2024-02-26T04:29:57;99647.59;;;9.04
75431;BMP280;64127;51.488;5.462;2024-02-26T04:32:29;99641.50;;;9.04
75431;BMP280;64127;51.488;5.462;2024-02-26T04:35:03;99663.25;;;9.04
75431;BMP280;64127;51.488;5.462;2024-02-26T04:37:35;99664.06;;;9.02
75431;BMP280;64127;51.488;5.462;2024-02-26T04:40:07;99665.84;;;9.03
75431;BMP280;64127;51.488;5.462;2024-02-26T04:42:39;99669.34;;;9.03
75431;BMP280;64127;51.488;5.462;2024-02-26T04:45:12;99672.94;;;9.07
75431;BMP280;64127;51.488;5.462;2024-02-26T04:47:44;99660.66;;;9.04
75431;BMP280;64127;51.488;5.462;2024-02-26T04:50:16;99671.06;;;9.03
75431;BMP280;64127;51.488;5.462;2024-02-26T04:52:48;99673.69;;;9.03
75431;BMP280;64127;51.488;5.462;2024-02-26T04:55:21;99675.41;;;9.02
75431;BMP280;64127;51.488;5.462;2024-02-26T04:57:53;99664.81;;;8.98
75431;BMP280;64127;51.488;5.462;2024-02-26T05:00:25;99673.63;;;9.01
75431;BMP280;64127;51.488;5.462;2024-02-26T05:02:57;99669.28;;;9.02
75431;BMP280;64127;51.488;5.462;2024-02-26T05:05:29;99670.06;;;8.98
75431;BMP280;64127;51.488;5.462;2024-02-26T05:08:01;99665.69;;;8.97
75431;BMP280;64127;51.488;5.462;2024-02-26T05:10:34;99672.66;;;8.98
75431;BMP280;64127;51.488;5.462;2024-02-26T05:13:11;99667.34;;;8.95
75431;BMP280;64127;51.488;5.462;2024-02-26T05:15:43;99669.06;;;8.93
75431;BMP280;64127;51.488;5.462;2024-02-26T05:18:15;99667.13;;;8.87
75431;BMP280;64127;51.488;5.462;2024-02-26T05:20:48;99674.13;;;8.87
75431;BMP280;64127;51.488;5.462;2024-02-26T05:23:20;99687.19;;;8.87
75431;BMP280;64127;51.488;5.462;2024-02-26T05:25:54;99674.88;;;8.84
75431;BMP280;64127;51.488;5.462;2024-02-26T05:28:26;99684.56;;;8.87
75431;BMP280;64127;51.488;5.462;2024-02-26T05:30:58;99688.91;;;8.86
75431;BMP280;64127;51.488;5.462;2024-02-26T05:33:30;99692.34;;;8.85
75431;BMP280;64127;51.488;5.462;2024-02-26T05:36:03;99687.84;;;8.80
75431;BMP280;64127;51.488;5.462;2024-02-26T05:38:36;99684.41;;;8.82
75431;BMP280;64127;51.488;5.462;2024-02-26T05:41:08;99706.22;;;8.84
75431;BMP280;64127;51.488;5.462;2024-02-26T05:43:40;99700.97;;;8.83
75431;BMP280;64127;51.488;5.462;2024-02-26T05:46:12;99700.91;;;8.81
75431;BMP280;64127;51.488;5.462;2024-02-26T05:48:50;99707.03;;;8.82
75431;BMP280;64127;51.488;5.462;2024-02-26T05:51:22;99705.25;;;8.81
75431;BMP280;64127;51.488;5.462;2024-02-26T05:53:54;99717.47;;;8.82
75431;BMP280;64127;51.488;5.462;2024-02-26T05:56:27;99730.38;;;8.76
75431;BMP280;64127;51.488;5.462;2024-02-26T05:58:59;99721.56;;;8.72
75431;BMP280;64127;51.488;5.462;2024-02-26T06:01:31;99723.44;;;8.78
75431;BMP280;64127;51.488;5.462;2024-02-26T06:04:03;99727.59;;;8.70
75431;BMP280;64127;51.488;5.462;2024-02-26T06:06:35;99738.19;;;8.76
75431;BMP280;64127;51.488;5.462;2024-02-26T06:09:09;99745.22;;;8.77
75431;BMP280;64127;51.488;5.462;2024-02-26T06:11:43;99740.97;;;8.82
75431;BMP280;64127;51.488;5.462;2024-02-26T06:14:15;99739.25;;;8.82
75431;BMP280;64127;51.488;5.462;2024-02-26T06:16:49;99733.91;;;8.78
75431;BMP280;64127;51.488;5.462;2024-02-26T06:19:21;99735.69;;;8.80
75431;BMP280;64127;51.488;5.462;2024-02-26T06:21:54;99744.50;;;8.82
75431;BMP280;64127;51.488;5.462;2024-02-26T06:24:26;99755.69;;;8.78
75431;BMP280;64127;51.488;5.462;2024-02-26T06:26:58;99755.66;;;8.77
75431;BMP280;64127;51.488;5.462;2024-02-26T06:29:30;99759.13;;;8.77
75431;BMP280;64127;51.488;5.462;2024-02-26T06:32:02;99761.78;;;8.79
75431;BMP280;64127;51.488;5.462;2024-02-26T06:34:34;99761.00;;;8.81
75431;BMP280;64127;51.488;5.462;2024-02-26T06:37:07;99766.28;;;8.83
75431;BMP280;64127;51.488;5.462;2024-02-26T06:39:39;99772.25;;;8.80
75431;BMP280;64127;51.488;5.462;2024-02-26T06:42:12;99767.75;;;8.75
75431;BMP280;64127;51.488;5.462;2024-02-26T06:44:45;99779.09;;;8.75
75431;BMP280;64127;51.488;5.462;2024-02-26T06:47:17;99777.31;;;8.74
75431;BMP280;64127;51.488;5.462;2024-02-26T06:49:49;99778.94;;;8.71
75431;BMP280;64127;51.488;5.462;2024-02-26T06:52:21;99778.03;;;8.69
75431;BMP280;64127;51.488;5.462;2024-02-26T06:54:53;99767.19;;;8.56
75431;BMP280;64127;51.488;5.462;2024-02-26T06:57:25;99790.94;;;8.64
75431;BMP280;64127;51.488;5.462;2024-02-26T06:59:57;99777.84;;;8.62
75431;BMP280;64127;51.488;5.462;2024-02-26T07:02:31;99785.59;;;8.59
75431;BMP280;64127;51.488;5.462;2024-02-26T07:05:05;99794.09;;;8.54
75431;BMP280;64127;51.488;5.462;2024-02-26T07:07:37;99799.31;;;8.54
75431;BMP280;64127;51.488;5.462;2024-02-26T07:10:09;99795.78;;;8.52
75431;BMP280;64127;51.488;5.462;2024-02-26T07:12:44;99792.47;;;8.57
75431;BMP280;64127;51.488;5.462;2024-02-26T07:15:16;99805.44;;;8.54
75431;BMP280;64127;51.488;5.462;2024-02-26T07:17:48;99810.75;;;8.57
75431;BMP280;64127;51.488;5.462;2024-02-26T07:20:21;99810.66;;;8.54
75431;BMP280;64127;51.488;5.462;2024-02-26T07:22:53;99821.16;;;8.56
75431;BMP280;64127;51.488;5.462;2024-02-26T07:25:25;99827.19;;;8.55
75431;BMP280;64127;51.488;5.462;2024-02-26T07:27:57;99829.66;;;8.50
75431;BMP280;64127;51.488;5.462;2024-02-26T07:30:29;99833.09;;;8.49
75431;BMP280;64127;51.488;5.462;2024-02-26T07:33:01;99842.59;;;8.47
75431;BMP280;64127;51.488;5.462;2024-02-26T07:35:33;99843.66;;;8.52
75431;BMP280;64127;51.488;5.462;2024-02-26T07:38:05;99851.50;;;8.52
75431;BMP280;64127;51.488;5.462;2024-02-26T07:40:40;99851.44;;;8.51
75431;BMP280;64127;51.488;5.462;2024-02-26T07:43:29;99855.66;;;8.47
75431;BMP280;64127;51.488;5.462;2024-02-26T07:46:01;99855.75;;;8.50
75431;BMP280;64127;51.488;5.462;2024-02-26T07:48:34;99854.88;;;8.50
75431;BMP280;64127;51.488;5.462;2024-02-26T07:51:06;99850.69;;;8.55
75431;BMP280;64127;51.488;5.462;2024-02-26T07:53:38;99856.75;;;8.54
75431;BMP280;64127;51.488;5.462;2024-02-26T07:56:10;99867.09;;;8.51
75431;BMP280;64127;51.488;5.462;2024-02-26T07:58:42;99875.00;;;8.52
75431;BMP280;64127;51.488;5.462;2024-02-26T08:01:14;99871.47;;;8.52
75431;BMP280;64127;51.488;5.462;2024-02-26T08:03:46;99885.63;;;8.58
75431;BMP280;64127;51.488;5.462;2024-02-26T08:06:19;99884.63;;;8.55
75431;BMP280;64127;51.488;5.462;2024-02-26T08:08:51;99890.66;;;8.52
75431;BMP280;64127;51.488;5.462;2024-02-26T08:11:23;99891.56;;;8.54
75431;BMP280;64127;51.488;5.462;2024-02-26T08:13:55;99895.09;;;8.56
75431;BMP280;64127;51.488;5.462;2024-02-26T08:16:27;99887.19;;;8.53
75431;BMP280;64127;51.488;5.462;2024-02-26T08:18:59;99891.50;;;8.53
75431;BMP280;64127;51.488;5.462;2024-02-26T08:21:31;99901.94;;;8.53
75431;BMP280;64127;51.488;5.462;2024-02-26T08:24:04;99905.50;;;8.55
75431;BMP280;64127;51.488;5.462;2024-02-26T08:26:36;99913.44;;;8.58
75431;BMP280;64127;51.488;5.462;2024-02-26T08:29:08;99918.75;;;8.61
75431;BMP280;64127;51.488;5.462;2024-02-26T08:31:40;99923.00;;;8.57
75431;BMP280;64127;51.488;5.462;2024-02-26T08:34:13;99923.72;;;8.53
75431;BMP280;64127;51.488;5.462;2024-02-26T08:36:45;99925.50;;;8.54
75431;BMP280;64127;51.488;5.462;2024-02-26T08:39:17;99933.50;;;8.59
75431;BMP280;64127;51.488;5.462;2024-02-26T08:41:49;99925.72;;;8.60
75431;BMP280;64127;51.488;5.462;2024-02-26T08:44:21;99934.59;;;8.65
75431;BMP280;64127;51.488;5.462;2024-02-26T08:46:53;99936.25;;;8.63
75431;BMP280;64127;51.488;5.462;2024-02-26T08:49:25;99936.06;;;8.57
75431;BMP280;64127;51.488;5.462;2024-02-26T08:51:57;99934.25;;;8.56
75431;BMP280;64127;51.488;5.462;2024-02-26T08:54:29;99942.97;;;8.55
75431;BMP280;64127;51.488;5.462;2024-02-26T08:57:03;99950.72;;;8.54
75431;BMP280;64127;51.488;5.462;2024-02-26T08:59:36;99942.84;;;8.52
75431;BMP280;64127;51.488;5.462;2024-02-26T09:02:08;99962.88;;;8.53
75431;BMP280;64127;51.488;5.462;2024-02-26T09:04:41;99959.50;;;8.56
75431;BMP280;64127;51.488;5.462;2024-02-26T09:07:13;99959.66;;;8.60
75431;BMP280;64127;51.488;5.462;2024-02-26T09:09:45;99959.53;;;8.57
75431;BMP280;64127;51.488;5.462;2024-02-26T09:12:17;99967.38;;;8.57
75431;BMP280;64127;51.488;5.462;2024-02-26T09:14:49;99973.59;;;8.61
75431;BMP280;64127;51.488;5.462;2024-02-26T09:17:21;99974.59;;;8.64
75431;BMP280;64127;51.488;5.462;2024-02-26T09:19:53;99972.91;;;8.66
75431;BMP280;64127;51.488;5.462;2024-02-26T09:22:25;99969.25;;;8.61
75431;BMP280;64127;51.488;5.462;2024-02-26T09:24:57;99988.47;;;8.63
75431;BMP280;64127;51.488;5.462;2024-02-26T09:27:29;99992.75;;;8.61
75431;BMP280;64127;51.488;5.462;2024-02-26T09:30:03;99994.47;;;8.61
75431;BMP280;64127;51.488;5.462;2024-02-26T09:32:35;99995.16;;;8.55
75431;BMP280;64127;51.488;5.462;2024-02-26T09:35:08;100003.94;;;8.57
75431;BMP280;64127;51.488;5.462;2024-02-26T09:37:40;100005.72;;;8.58
75431;BMP280;64127;51.488;5.462;2024-02-26T09:40:12;100008.31;;;8.58
75431;BMP280;64127;51.488;5.462;2024-02-26T09:42:45;100008.44;;;8.61
75431;BMP280;64127;51.488;5.462;2024-02-26T09:45:21;100017.16;;;8.62
75431;BMP280;64127;51.488;5.462;2024-02-26T09:47:56;100025.78;;;8.59
75431;BMP280;64127;51.488;5.462;2024-02-26T09:50:28;100025.59;;;8.55
75431;BMP280;64127;51.488;5.462;2024-02-26T09:53:01;100029.09;;;8.55
75431;BMP280;64127;51.488;5.462;2024-02-26T09:55:34;100029.94;;;8.54
75431;BMP280;64127;51.488;5.462;2024-02-26T09:58:06;100021.28;;;8.55
75431;BMP280;64127;51.488;5.462;2024-02-26T10:00:41;100034.53;;;8.61
75431;BMP280;64127;51.488;5.462;2024-02-26T10:03:15;100036.31;;;8.62
75431;BMP280;64127;51.488;5.462;2024-02-26T10:05:50;100040.59;;;8.60
75431;BMP280;64127;51.488;5.462;2024-02-26T10:08:23;100044.91;;;8.60
75431;BMP280;64127;51.488;5.462;2024-02-26T10:10:56;100045.00;;;8.63
75431;BMP280;64127;51.488;5.462;2024-02-26T10:13:28;100057.31;;;8.65
75431;BMP280;64127;51.488;5.462;2024-02-26T10:16:00;100059.81;;;8.62
75431;BMP280;64127;51.488;5.462;2024-02-26T10:18:52;100076.94;;;8.54
75431;BMP280;64127;51.488;5.462;2024-02-26T10:21:31;100076.13;;;8.57
75431;BMP280;64127;51.488;5.462;2024-02-26T10:24:03;100078.84;;;8.60
75431;BMP280;64127;51.488;5.462;2024-02-26T10:26:36;100085.94;;;8.62
75431;BMP280;64127;51.488;5.462;2024-02-26T10:29:09;100086.75;;;8.61
75431;BMP280;64127;51.488;5.462;2024-02-26T10:31:44;100091.16;;;8.62
75431;BMP280;64127;51.488;5.462;2024-02-26T10:34:17;100103.34;;;8.63
75431;BMP280;64127;51.488;5.462;2024-02-26T10:36:50;100100.81;;;8.65
75431;BMP280;64127;51.488;5.462;2024-02-26T10:39:25;100102.53;;;8.64
75431;BMP280;64127;51.488;5.462;2024-02-26T10:41:57;100109.53;;;8.65
75431;BMP280;64127;51.488;5.462;2024-02-26T10:44:31;100115.59;;;8.64
75431;BMP280;64127;51.488;5.462;2024-02-26T10:47:03;100126.09;;;8.66
75431;BMP280;64127;51.488;5.462;2024-02-26T10:49:35;100119.03;;;8.63
75431;BMP280;64127;51.488;5.462;2024-02-26T10:52:09;100126.91;;;8.65
75431;BMP280;64127;51.488;5.462;2024-02-26T10:54:42;100132.06;;;8.63
75431;BMP280;64127;51.488;5.462;2024-02-26T10:57:19;100138.19;;;8.64
75431;BMP280;64127;51.488;5.462;2024-02-26T10:59:54;100150.34;;;8.63
75431;BMP280;64127;51.488;5.462;2024-02-26T11:02:27;100152.13;;;8.64
75431;BMP280;64127;51.488;5.462;2024-02-26T11:05:03;100146.03;;;8.64
75431;BMP280;64127;51.488;5.462;2024-02-26T11:07:36;100147.75;;;8.63
75431;BMP280;64127;51.488;5.462;2024-02-26T11:10:11;100144.09;;;8.58
75431;BMP280;64127;51.488;5.462;2024-02-26T11:12:44;100151.25;;;8.64
75431;BMP280;64127;51.488;5.462;2024-02-26T11:15:18;100160.03;;;8.66
75431;BMP280;64127;51.488;5.462;2024-02-26T11:17:53;100160.88;;;8.65
75431;BMP280;64127;51.488;5.462;2024-02-26T11:20:28;100158.28;;;8.66
75431;BMP280;64127;51.488;5.462;2024-02-26T11:23:01;100166.28;;;8.70
75431;BMP280;64127;51.488;5.462;2024-02-26T11:25:35;100170.59;;;8.69
75431;BMP280;64127;51.488;5.462;2024-02-26T11:28:17;100172.97;;;8.63
75431;BMP280;64127;51.488;5.462;2024-02-26T11:30:52;100172.22;;;8.65
75431;BMP280;64127;51.488;5.462;2024-02-26T11:33:25;100162.69;;;8.68
75431;BMP280;64127;51.488;5.462;2024-02-26T11:35:57;100179.44;;;8.73
75431;BMP280;64127;51.488;5.462;2024-02-26T11:38:30;100168.13;;;8.74
75431;BMP280;64127;51.488;5.462;2024-02-26T11:41:02;100174.22;;;8.73
75431;BMP280;64127;51.488;5.462;2024-02-26T11:43:58;100167.91;;;8.68
75431;BMP280;64127;51.488;5.462;2024-02-26T11:46:42;100164.59;;;8.72
75431;BMP280;64127;51.488;5.462;2024-02-26T11:52:00;100183.81;;;8.74
75431;BMP280;64127;51.488;5.462;2024-02-26T11:54:52;100182.06;;;8.73
75431;BMP280;64127;51.488;5.462;2024-02-26T11:57:38;100178.59;;;8.74
75431;BMP280;64127;51.488;5.462;2024-02-26T12:00:15;100181.38;;;8.78
75431;BMP280;64127;51.488;5.462;2024-02-26T12:02:55;100185.06;;;8.83
75431;BMP280;64127;51.488;5.462;2024-02-26T12:05:34;100185.91;;;8.84
75431;BMP280;64127;51.488;5.462;2024-02-26T12:08:10;100194.63;;;8.83
75431;BMP280;64127;51.488;5.462;2024-02-26T12:10:45;100195.38;;;8.80
75431;BMP280;64127;51.488;5.462;2024-02-26T12:13:18;100204.88;;;8.78
75431;BMP280;64127;51.488;5.462;2024-02-26T12:15:58;100194.03;;;8.68
75431;BMP280;64127;51.488;5.462;2024-02-26T12:18:32;100204.88;;;8.78
75431;BMP280;64127;51.488;5.462;2024-02-26T12:21:04;100220.66;;;8.81
75431;BMP280;64127;51.488;5.462;2024-02-26T12:23:36;100217.16;;;8.81
75431;BMP280;64127;51.488;5.462;2024-02-26T12:26:08;100212.81;;;8.81
75431;BMP280;64127;51.488;5.462;2024-02-26T12:28:42;100222.50;;;8.84
75431;BMP280;64127;51.488;5.462;2024-02-26T12:31:14;100222.78;;;8.91
75431;BMP280;64127;51.488;5.462;2024-02-26T12:33:46;100217.63;;;8.93
75431;BMP280;64127;51.488;5.462;2024-02-26T12:36:19;100224.59;;;8.94
75431;BMP280;64127;51.488;5.462;2024-02-26T12:38:51;100223.66;;;8.92
75431;BMP280;64127;51.488;5.462;2024-02-26T12:41:24;100243.03;;;8.97
75431;BMP280;64127;51.488;5.462;2024-02-26T12:43:57;100237.81;;;8.97
75431;BMP280;64127;51.488;5.462;2024-02-26T12:46:30;100253.34;;;8.94
75431;BMP280;64127;51.488;5.462;2024-02-26T12:49:02;100239.16;;;8.87
75431;BMP280;64127;51.488;5.462;2024-02-26T12:51:35;100252.13;;;8.84
75431;BMP280;64127;51.488;5.462;2024-02-26T12:54:09;100260.84;;;8.85
75431;BMP280;64127;51.488;5.462;2024-02-26T12:56:42;100252.06;;;8.83
75431;BMP280;64127;51.488;5.462;2024-02-26T12:59:14;100259.22;;;8.87
75431;BMP280;64127;51.488;5.462;2024-02-26T13:01:46;100260.06;;;8.87
75431;BMP280;64127;51.488;5.462;2024-02-26T13:04:19;100267.03;;;8.87
75431;BMP280;64127;51.488;5.462;2024-02-26T13:06:51;100259.06;;;8.84
75431;BMP280;64127;51.488;5.462;2024-02-26T13:09:23;100273.09;;;8.86
75431;BMP280;64127;51.488;5.462;2024-02-26T13:11:56;100283.66;;;8.89
75431;BMP280;64127;51.488;5.462;2024-02-26T13:14:28;100279.34;;;8.91
75431;BMP280;64127;51.488;5.462;2024-02-26T13:17:03;100292.41;;;8.91
75431;BMP280;64127;51.488;5.462;2024-02-26T13:19:36;100285.44;;;8.90
75431;BMP280;64127;51.488;5.462;2024-02-26T13:22:09;100297.75;;;8.94
75431;BMP280;64127;51.488;5.462;2024-02-26T13:24:41;100293.44;;;8.94
75431;BMP280;64127;51.488;5.462;2024-02-26T13:27:24;100302.16;;;8.95
75431;BMP280;64127;51.488;5.462;2024-02-26T13:30:22;100301.13;;;8.90
75431;BMP280;64127;51.488;5.462;2024-02-26T13:32:54;100306.34;;;8.90
75431;BMP280;64127;51.488;5.462;2024-02-26T13:35:26;100316.81;;;8.91
75431;BMP280;64127;51.488;5.462;2024-02-26T13:37:58;100327.13;;;8.87
75431;BMP280;64127;51.488;5.462;2024-02-26T13:40:30;100326.22;;;8.86
75431;BMP280;64127;51.488;5.462;2024-02-26T13:43:03;100327.94;;;8.86
75431;BMP280;64127;51.488;5.462;2024-02-26T13:45:37;100334.88;;;8.85
75431;BMP280;64127;51.488;5.462;2024-02-26T13:48:10;100332.97;;;8.81
75431;BMP280;64127;51.488;5.462;2024-02-26T13:50:44;100340.94;;;8.84
75431;BMP280;64127;51.488;5.462;2024-02-26T13:53:17;100346.94;;;8.82
75431;BMP280;64127;51.488;5.462;2024-02-26T13:55:49;100355.56;;;8.79
75431;BMP280;64127;51.488;5.462;2024-02-26T13:58:21;100361.59;;;8.78
75431;BMP280;64127;51.488;5.462;2024-02-26T14:00:55;100355.66;;;8.82
75431;BMP280;64127;51.488;5.462;2024-02-26T14:03:28;100361.78;;;8.83
75431;BMP280;64127;51.488;5.462;2024-02-26T14:06:00;100368.03;;;8.86
75431;BMP280;64127;51.488;5.462;2024-02-26T14:08:32;100360.13;;;8.85
75431;BMP280;64127;51.488;5.462;2024-02-26T14:11:04;100359.88;;;8.79
75431;BMP280;64127;51.488;5.462;2024-02-26T14:13:36;100365.41;;;8.86
75431;BMP280;64127;51.488;5.462;2024-02-26T14:16:12;100374.25;;;8.90
75431;BMP280;64127;51.488;5.462;2024-02-26T14:18:45;100371.69;;;8.91
75431;BMP280;64127;51.488;5.462;2024-02-26T14:21:18;100376.09;;;8.92
75431;BMP280;64127;51.488;5.462;2024-02-26T14:23:51;100378.91;;;8.97
75431;BMP280;64127;51.488;5.462;2024-02-26T14:26:23;100378.06;;;8.98
75431;BMP280;64127;51.488;5.462;2024-02-26T14:28:55;100386.00;;;9.01
75431;BMP280;64127;51.488;5.462;2024-02-26T14:31:27;100385.19;;;9.02
75431;BMP280;64127;51.488;5.462;2024-02-26T14:34:00;100392.19;;;9.03
75431;BMP280;64127;51.488;5.462;2024-02-26T14:36:32;100392.19;;;9.03
75431;BMP280;64127;51.488;5.462;2024-02-26T14:39:04;100399.06;;;9.01
75431;BMP280;64127;51.488;5.462;2024-02-26T14:41:36;100398.13;;;8.99
75431;BMP280;64127;51.488;5.462;2024-02-26T14:44:08;100409.53;;;9.01
75431;BMP280;64127;51.488;5.462;2024-02-26T14:46:40;100403.94;;;9.36
75431;BMP280;64127;51.488;5.462;2024-02-26T14:49:13;100412.63;;;9.13